Weather observations for the past three days for
Atlanta, De Kalb-Peachtree Airport
Metric (Imperial)
Date Time (edt) Wind (kph) Vis. (km) Weather Sky Cond. Temperature (ºC) Relative Humidity Wind Chill (°C) Heat Index (°C) Pressure Precipitation (cm)
Air Dwpt 6 hour altimeter (cm) sea level (mb) 1 hr 3 hr 6 hr
Max. Min.
10 12:53 S 6 16.09 Fair CLR 25 11.7 43% 26 76.3 1016.2
10 11:53 W 6 16.09 Fair CLR 24.4 12.2 47% 26 76.33 1016.5
10 10:53 Calm 16.09 Fair CLR 22.2 14.4 61% 76.35 1016.9
10 09:53 Calm 16.09 Fair CLR 20.6 15 70% 76.33 1016.8
10 08:53 N 6 14.48 Fair CLR 18.3 15.6 84% 76.33 1016.6
10 07:53 NW 9 9.66 Fog/Mist OVC005 16.7 15.6 17.2 12.8 93% 76.28 1016.0
10 06:53 N 13 8.05 Fog/Mist OVC004 16.1 15.6 97% 76.2 1015.1
10 05:53 N 6 1.21 Fog/Mist VV004 13.9 12.8 93% 76.15 1014.5
10 04:53 Calm 11.27 Fair CLR 15 13.9 93% 76.12 1013.9
10 03:53 Calm 14.48 Fair CLR 15.6 14.4 93% 76.07 1013.5
10 02:53 W 6 16.09 Fair CLR 16.1 15 93% 76.07 1013.3
10 01:53 W 7 16.09 Fair CLR 17.2 15 19.4 16.7 87% 76.07 1013.4
10 00:53 W 6 16.09 Fair CLR 17.2 15 87% 76.1 1013.8
09 23:53 W 7 16.09 Fair CLR 17.8 15 84% 76.12 1014.3
09 22:53 SW 9 16.09 Fair CLR 17.2 15 87% 76.1 1014.0
09 21:53 SW 7 16.09 Fair CLR 18.3 15 81% 76.05 1013.1
09 20:53 SW 9 16.09 Fair CLR 18.9 15 78% 76.02 1012.6
09 19:53 SW 9 16.09 Fair CLR 19.4 14.4 21.7 19.4 73% 75.97 1012.1
09 18:53 SW 7 16.09 Fair CLR 20.6 14.4 68% 75.92 1011.5
09 17:53 SW 9 16.09 Fair CLR 21.1 14.4 66% 75.92 1011.3
09 16:53 SW 9 16.09 Fair CLR 21.7 14.4 63% 75.87 1010.6
09 15:53 S 7 16.09 Fair CLR 21.1 14.4 66% 75.92 1011.3
09 14:53 Vrbl 6 16.09 A Few Clouds FEW026 21.1 13.3 61% 75.95 1011.6
09 13:53 W 11 16.09 Mostly Cloudy BKN014 20 14.4 20 16.1 70% 75.97 1011.9
09 12:53 SW 13 16.09 Overcast OVC013 18.3 15 81% 76 1012.7
09 11:53 W 11 14.48 Overcast OVC004 17.2 15.6 90% 76 1012.7
09 10:53 W 11 14.48 Overcast OVC009 16.7 14.4 86% 76.05 1013.3
09 09:53 W 13 16.09 Mostly Cloudy BKN009 BKN017 17.2 14.4 84% 76 1012.6
09 08:53 SW 9 16.09 Mostly Cloudy BKN017 16.7 14.4 86% 75.97 1012.0
09 07:53 NW 6 16.09 Mostly Cloudy BKN026 BKN050 16.1 14.4 16.1 13.3 90% 75.92 1011.4
09 06:53 Calm 14.48 Mostly Cloudy BKN026 15 13.3 90% 75.9 1011.2
09 05:53 Calm 16.09 Overcast FEW029 OVC037 15 13.3 90% 75.97 1011.9
09 04:53 Calm 16.09 Overcast OVC039 15 13.3 90% 75.92 1011.5
09 03:53 Calm 16.09 Mostly Cloudy BKN040 13.9 12.2 90% 75.95 1011.6
09 02:53 Calm 16.09 A Few Clouds FEW100 13.9 12.8 93% 75.92 1011.4
09 01:53 Calm 16.09 Overcast OVC055 15 13.3 18.3 14.4 90% 76.02 1012.8
09 00:53 Calm 16.09 Fair CLR 14.4 12.8 90% 76.02 1012.9
08 23:53 Calm 16.09 A Few Clouds FEW070 15 12.2 83% 76.07 1013.6
08 22:53 Calm 16.09 Fair CLR 16.1 12.2 78% 76.1 1013.9
08 21:53 S 9 16.09 A Few Clouds FEW029 17.2 12.2 73% 76.1 1014.1
08 20:53 S 9 16.09 Fair CLR 17.8 11.7 68% 76.1 1013.9
08 19:53 S 11 16.09 Fair CLR 18.3 11.1 22.2 18.3 63% 76.1 1014.0
08 18:53 SE 9 16.09 Fair CLR 19.4 11.1 59% 76.05 1013.6
08 17:53 S 9 16.09 Fair CLR 20 9.4 51% 76.07 1013.7
08 16:53 S 9 16.09 Fair CLR 20.6 10 51% 76.07 1013.7
08 15:53 Calm 16.09 Fair CLR 21.1 8.9 46% 76.07 1013.7
08 14:53 S 13 16.09 Fair CLR 21.7 8.9 44% 76.15 1014.6
08 13:53 S 11 16.09 Fair CLR 21.1 7.8 21.1 12.2 42% 76.23 1015.3
08 12:53 S 11 16.09 Fair CLR 19.4 9.4 53% 76.28 1016.3
08 11:53 Calm 16.09 Fair CLR 18.9 9.4 54% 76.35 1017.3
08 10:53 Vrbl 7 16.09 Fair CLR 17.2 9.4 60% 76.38 1017.7
08 09:53 Vrbl 6 12.87 Fair CLR 15.6 9.4 67% 76.38 1017.8
08 08:53 N 6 16.09 Fair CLR 13.9 9.4 74% 76.35 1017.6
08 07:53 Calm 16.09 Fair CLR 12.2 10.6 13.9 9.4 90% 76.33 1017.1
08 06:53 Calm 11.27 Fair CLR 9.4 8.9 97% 76.23 1015.9
08 05:53 Calm 12.87 Fair CLR 10 8.9 93% 76.17 1015.1
08 04:53 N 6 16.09 Fair CLR 10.6 9.4 92% 76.15 1014.9
08 03:53 N 9 16.09 Fair CLR 12.2 10.6 90% 76.12 1014.3
08 02:53 N 7 16.09 Fair CLR 12.8 10.6 87% 76.15 1014.7
08 01:53 NW 7 16.09 Fair CLR 13.9 11.7 18.3 13.3 87% 76.15 1014.8
08 00:53 NW 7 16.09 Fair CLR 14.4 12.2 87% 76.17 1014.7
07 23:53 W 6 16.09 Fair CLR 14.4 11.7 84% 76.15 1014.3
07 22:53 NW 6 16.09 Fair CLR 15.6 12.2 80% 76.12 1014.3
07 21:53 NW 7 16.09 Partly Cloudy SCT036 16.7 12.2 75% 76.1 1013.9
07 20:53 NW 7 16.09 Mostly Cloudy BKN031 BKN041 17.8 12.2 70% 76.07 1013.5
07 19:53 NW 13 16.09 Mostly Cloudy BKN033 BKN040 18.3 12.2 20.6 18.3 68% 76.02 1012.7
07 18:53 W 17 16.09 A Few Clouds FEW031 20 13.3 65% 76 1012.2
07 17:53 W 24 16.09 Mostly Cloudy FEW020 BKN035 20 12.8 63% 75.95 1011.8
07 16:53 W 20 G 30 16.09 Mostly Cloudy SCT020 BKN031 19.4 13.9 71% 75.95 1011.5
07 15:53 W 17 G 33 16.09 Overcast BKN020 BKN025 OVC036 19.4 15 76% 75.95 1011.7
07 14:53 N 20 G 35 16.09 Light Rain BKN016 OVC022 18.3 15 81% 75.97 1012.1
07 13:53 W 19 16.09 Light Rain FEW012 BKN020 OVC028 18.9 15.6 21.1 17.2 81% 75.97 1012.0 0.23
Date Time (edt) Wind (kph) Vis. (km) Weather Sky Cond. Air Dwpt Max. Min. Relative Humidity Wind Chill (°C) Heat Index (°C) altimeter (cm) sea level (mb) 1 hr 3 hr 6 hr
6 hour
Temperature (ºC) Pressure Precipitation (cm)